sensor_id;sensor_type;location;lat;lon;timestamp;P1;durP1;ratioP1;P2;durP2;ratioP2
10904;SDS011;5505;51.450;9.254;2023-02-12T00:00:51;34.43;;;25.83;;
10904;SDS011;5505;51.450;9.254;2023-02-12T00:03:38;33.00;;;26.17;;
10904;SDS011;5505;51.450;9.254;2023-02-12T00:06:25;35.20;;;26.73;;
10904;SDS011;5505;51.450;9.254;2023-02-12T00:09:13;33.37;;;25.37;;
10904;SDS011;5505;51.450;9.254;2023-02-12T00:12:00;34.20;;;25.03;;
10904;SDS011;5505;51.450;9.254;2023-02-12T00:14:47;37.57;;;25.80;;
10904;SDS011;5505;51.450;9.254;2023-02-12T00:17:34;33.87;;;25.80;;
10904;SDS011;5505;51.450;9.254;2023-02-12T00:20:21;32.17;;;24.03;;
10904;SDS011;5505;51.450;9.254;2023-02-12T00:23:09;31.83;;;24.60;;
10904;SDS011;5505;51.450;9.254;2023-02-12T00:25:57;33.23;;;23.67;;
10904;SDS011;5505;51.450;9.254;2023-02-12T00:28:44;30.80;;;23.27;;
10904;SDS011;5505;51.450;9.254;2023-02-12T00:31:31;29.80;;;23.10;;
10904;SDS011;5505;51.450;9.254;2023-02-12T00:34:18;32.63;;;21.97;;
10904;SDS011;5505;51.450;9.254;2023-02-12T00:37:04;33.27;;;23.30;;
10904;SDS011;5505;51.450;9.254;2023-02-12T00:39:51;32.50;;;22.83;;
10904;SDS011;5505;51.450;9.254;2023-02-12T00:42:39;26.40;;;21.30;;
10904;SDS011;5505;51.450;9.254;2023-02-12T00:45:26;27.10;;;21.63;;
10904;SDS011;5505;51.450;9.254;2023-02-12T00:48:13;29.80;;;22.50;;
10904;SDS011;5505;51.450;9.254;2023-02-12T00:51:01;30.87;;;22.10;;
10904;SDS011;5505;51.450;9.254;2023-02-12T00:53:48;29.53;;;22.40;;
10904;SDS011;5505;51.450;9.254;2023-02-12T00:56:35;32.33;;;22.80;;
10904;SDS011;5505;51.450;9.254;2023-02-12T00:59:23;30.33;;;22.23;;
10904;SDS011;5505;51.450;9.254;2023-02-12T01:02:10;30.67;;;22.47;;
10904;SDS011;5505;51.450;9.254;2023-02-12T01:04:57;28.77;;;22.27;;
10904;SDS011;5505;51.450;9.254;2023-02-12T01:07:47;29.83;;;21.30;;
10904;SDS011;5505;51.450;9.254;2023-02-12T01:10:34;27.37;;;20.67;;
10904;SDS011;5505;51.450;9.254;2023-02-12T01:13:21;26.57;;;20.37;;
10904;SDS011;5505;51.450;9.254;2023-02-12T01:16:17;27.63;;;20.47;;
10904;SDS011;5505;51.450;9.254;2023-02-12T01:19:05;25.17;;;19.70;;
10904;SDS011;5505;51.450;9.254;2023-02-12T01:21:52;27.37;;;19.57;;
10904;SDS011;5505;51.450;9.254;2023-02-12T01:24:39;24.73;;;18.77;;
10904;SDS011;5505;51.450;9.254;2023-02-12T01:27:26;25.10;;;18.87;;
10904;SDS011;5505;51.450;9.254;2023-02-12T01:30:13;25.57;;;19.30;;
10904;SDS011;5505;51.450;9.254;2023-02-12T01:33:02;23.10;;;18.30;;
10904;SDS011;5505;51.450;9.254;2023-02-12T01:35:49;26.00;;;18.47;;
10904;SDS011;5505;51.450;9.254;2023-02-12T01:38:35;24.07;;;18.73;;
10904;SDS011;5505;51.450;9.254;2023-02-12T01:41:23;26.13;;;17.60;;
10904;SDS011;5505;51.450;9.254;2023-02-12T01:44:12;23.47;;;18.10;;
10904;SDS011;5505;51.450;9.254;2023-02-12T01:47:02;22.93;;;17.73;;
10904;SDS011;5505;51.450;9.254;2023-02-12T01:49:51;23.93;;;17.13;;
10904;SDS011;5505;51.450;9.254;2023-02-12T01:52:38;22.37;;;17.40;;
10904;SDS011;5505;51.450;9.254;2023-02-12T01:55:28;23.17;;;17.27;;
10904;SDS011;5505;51.450;9.254;2023-02-12T01:58:15;23.93;;;17.00;;
10904;SDS011;5505;51.450;9.254;2023-02-12T02:01:02;22.70;;;17.63;;
10904;SDS011;5505;51.450;9.254;2023-02-12T02:03:53;22.43;;;17.17;;
10904;SDS011;5505;51.450;9.254;2023-02-12T02:06:46;22.47;;;16.27;;
10904;SDS011;5505;51.450;9.254;2023-02-12T02:09:36;23.30;;;17.17;;
10904;SDS011;5505;51.450;9.254;2023-02-12T02:12:24;22.33;;;16.27;;
10904;SDS011;5505;51.450;9.254;2023-02-12T02:15:29;25.93;;;17.63;;
10904;SDS011;5505;51.450;9.254;2023-02-12T02:18:18;23.33;;;17.07;;
10904;SDS011;5505;51.450;9.254;2023-02-12T02:24:46;22.93;;;15.77;;
10904;SDS011;5505;51.450;9.254;2023-02-12T02:28:17;21.57;;;16.00;;
10904;SDS011;5505;51.450;9.254;2023-02-12T02:31:20;24.23;;;15.53;;
10904;SDS011;5505;51.450;9.254;2023-02-12T02:34:14;22.93;;;15.63;;
10904;SDS011;5505;51.450;9.254;2023-02-12T02:37:07;23.97;;;15.20;;
10904;SDS011;5505;51.450;9.254;2023-02-12T02:40:01;21.73;;;15.13;;
10904;SDS011;5505;51.450;9.254;2023-02-12T02:42:55;20.80;;;15.07;;
10904;SDS011;5505;51.450;9.254;2023-02-12T02:45:47;21.00;;;14.70;;
10904;SDS011;5505;51.450;9.254;2023-02-12T02:48:38;21.50;;;15.10;;
10904;SDS011;5505;51.450;9.254;2023-02-12T02:51:30;22.33;;;15.07;;
10904;SDS011;5505;51.450;9.254;2023-02-12T02:54:25;21.40;;;15.03;;
10904;SDS011;5505;51.450;9.254;2023-02-12T02:57:16;20.90;;;14.63;;
10904;SDS011;5505;51.450;9.254;2023-02-12T03:00:11;22.30;;;14.57;;
10904;SDS011;5505;51.450;9.254;2023-02-12T03:03:01;21.03;;;14.53;;
10904;SDS011;5505;51.450;9.254;2023-02-12T03:05:55;24.20;;;14.87;;
10904;SDS011;5505;51.450;9.254;2023-02-12T03:08:46;21.23;;;14.83;;
10904;SDS011;5505;51.450;9.254;2023-02-12T03:11:36;21.67;;;14.57;;
10904;SDS011;5505;51.450;9.254;2023-02-12T03:14:24;23.30;;;14.77;;
10904;SDS011;5505;51.450;9.254;2023-02-12T03:17:15;22.30;;;14.43;;
10904;SDS011;5505;51.450;9.254;2023-02-12T03:20:06;21.77;;;14.13;;
10904;SDS011;5505;51.450;9.254;2023-02-12T03:23:00;20.90;;;14.10;;
10904;SDS011;5505;51.450;9.254;2023-02-12T03:25:52;19.83;;;13.97;;
10904;SDS011;5505;51.450;9.254;2023-02-12T03:28:42;20.93;;;13.50;;
10904;SDS011;5505;51.450;9.254;2023-02-12T03:31:30;21.73;;;14.70;;
10904;SDS011;5505;51.450;9.254;2023-02-12T03:34:23;21.77;;;14.33;;
10904;SDS011;5505;51.450;9.254;2023-02-12T03:37:16;20.57;;;14.33;;
10904;SDS011;5505;51.450;9.254;2023-02-12T03:40:10;20.17;;;13.90;;
10904;SDS011;5505;51.450;9.254;2023-02-12T03:43:01;19.67;;;13.90;;
10904;SDS011;5505;51.450;9.254;2023-02-12T03:45:54;20.77;;;13.97;;
10904;SDS011;5505;51.450;9.254;2023-02-12T03:48:46;19.87;;;13.33;;
10904;SDS011;5505;51.450;9.254;2023-02-12T03:51:39;20.77;;;14.33;;
10904;SDS011;5505;51.450;9.254;2023-02-12T03:54:29;18.93;;;12.47;;
10904;SDS011;5505;51.450;9.254;2023-02-12T03:57:19;20.23;;;13.63;;
10904;SDS011;5505;51.450;9.254;2023-02-12T04:00:08;18.60;;;12.73;;
10904;SDS011;5505;51.450;9.254;2023-02-12T04:02:57;19.43;;;13.13;;
10904;SDS011;5505;51.450;9.254;2023-02-12T04:05:44;19.67;;;13.20;;
10904;SDS011;5505;51.450;9.254;2023-02-12T04:08:31;19.57;;;13.03;;
10904;SDS011;5505;51.450;9.254;2023-02-12T04:11:20;19.77;;;13.47;;
10904;SDS011;5505;51.450;9.254;2023-02-12T04:14:19;19.60;;;13.40;;
10904;SDS011;5505;51.450;9.254;2023-02-12T04:17:13;20.63;;;13.57;;
10904;SDS011;5505;51.450;9.254;2023-02-12T04:20:08;21.93;;;13.93;;
10904;SDS011;5505;51.450;9.254;2023-02-12T04:23:04;19.87;;;13.57;;
10904;SDS011;5505;51.450;9.254;2023-02-12T04:26:01;20.07;;;13.27;;
10904;SDS011;5505;51.450;9.254;2023-02-12T04:28:56;17.83;;;13.33;;
10904;SDS011;5505;51.450;9.254;2023-02-12T04:32:09;19.33;;;12.70;;
10904;SDS011;5505;51.450;9.254;2023-02-12T04:35:01;18.00;;;13.27;;
10904;SDS011;5505;51.450;9.254;2023-02-12T04:37:51;19.83;;;13.17;;
10904;SDS011;5505;51.450;9.254;2023-02-12T04:40:42;19.33;;;13.17;;
10904;SDS011;5505;51.450;9.254;2023-02-12T04:43:31;18.60;;;12.93;;
10904;SDS011;5505;51.450;9.254;2023-02-12T04:46:18;18.67;;;12.43;;
10904;SDS011;5505;51.450;9.254;2023-02-12T04:49:08;18.63;;;12.77;;
10904;SDS011;5505;51.450;9.254;2023-02-12T04:51:59;17.27;;;12.53;;
10904;SDS011;5505;51.450;9.254;2023-02-12T04:54:45;19.00;;;12.57;;
10904;SDS011;5505;51.450;9.254;2023-02-12T04:57:32;17.63;;;13.13;;
10904;SDS011;5505;51.450;9.254;2023-02-12T05:00:19;19.07;;;12.97;;
10904;SDS011;5505;51.450;9.254;2023-02-12T05:03:06;18.03;;;12.03;;
10904;SDS011;5505;51.450;9.254;2023-02-12T05:05:54;18.40;;;12.97;;
10904;SDS011;5505;51.450;9.254;2023-02-12T05:08:41;18.67;;;13.07;;
10904;SDS011;5505;51.450;9.254;2023-02-12T05:11:28;19.47;;;12.37;;
10904;SDS011;5505;51.450;9.254;2023-02-12T05:14:14;17.53;;;12.50;;
10904;SDS011;5505;51.450;9.254;2023-02-12T05:17:01;15.90;;;11.83;;
10904;SDS011;5505;51.450;9.254;2023-02-12T05:19:48;19.83;;;12.87;;
10904;SDS011;5505;51.450;9.254;2023-02-12T05:22:36;19.47;;;12.10;;
10904;SDS011;5505;51.450;9.254;2023-02-12T05:25:23;17.43;;;11.83;;
10904;SDS011;5505;51.450;9.254;2023-02-12T05:28:10;17.87;;;12.13;;
10904;SDS011;5505;51.450;9.254;2023-02-12T05:30:58;18.70;;;11.97;;
10904;SDS011;5505;51.450;9.254;2023-02-12T05:33:46;16.80;;;12.60;;
10904;SDS011;5505;51.450;9.254;2023-02-12T05:36:33;20.00;;;12.90;;
10904;SDS011;5505;51.450;9.254;2023-02-12T05:39:21;19.47;;;13.23;;
10904;SDS011;5505;51.450;9.254;2023-02-12T05:42:08;18.30;;;12.57;;
10904;SDS011;5505;51.450;9.254;2023-02-12T05:44:55;19.43;;;12.37;;
10904;SDS011;5505;51.450;9.254;2023-02-12T05:47:42;20.30;;;13.13;;
10904;SDS011;5505;51.450;9.254;2023-02-12T05:50:28;20.00;;;13.60;;
10904;SDS011;5505;51.450;9.254;2023-02-12T05:53:15;20.93;;;12.43;;
10904;SDS011;5505;51.450;9.254;2023-02-12T05:56:10;18.93;;;12.47;;
10904;SDS011;5505;51.450;9.254;2023-02-12T05:58:59;19.37;;;11.73;;
10904;SDS011;5505;51.450;9.254;2023-02-12T06:01:48;18.07;;;11.43;;
10904;SDS011;5505;51.450;9.254;2023-02-12T06:04:36;19.47;;;12.77;;
10904;SDS011;5505;51.450;9.254;2023-02-12T06:07:23;25.03;;;14.17;;
10904;SDS011;5505;51.450;9.254;2023-02-12T06:10:10;20.83;;;12.90;;
10904;SDS011;5505;51.450;9.254;2023-02-12T06:12:58;21.17;;;13.47;;
10904;SDS011;5505;51.450;9.254;2023-02-12T06:15:45;21.63;;;14.63;;
10904;SDS011;5505;51.450;9.254;2023-02-12T06:18:33;23.37;;;14.07;;
10904;SDS011;5505;51.450;9.254;2023-02-12T06:21:21;22.60;;;14.13;;
10904;SDS011;5505;51.450;9.254;2023-02-12T06:24:11;23.83;;;14.33;;
10904;SDS011;5505;51.450;9.254;2023-02-12T06:26:58;22.00;;;14.33;;
10904;SDS011;5505;51.450;9.254;2023-02-12T06:29:46;23.60;;;14.53;;
10904;SDS011;5505;51.450;9.254;2023-02-12T06:32:33;22.57;;;15.43;;
10904;SDS011;5505;51.450;9.254;2023-02-12T06:35:20;25.43;;;14.13;;
10904;SDS011;5505;51.450;9.254;2023-02-12T06:38:06;21.53;;;13.67;;
10904;SDS011;5505;51.450;9.254;2023-02-12T06:40:53;22.70;;;15.67;;
10904;SDS011;5505;51.450;9.254;2023-02-12T06:43:40;22.20;;;15.30;;
10904;SDS011;5505;51.450;9.254;2023-02-12T06:46:28;23.90;;;16.27;;
10904;SDS011;5505;51.450;9.254;2023-02-12T06:49:15;25.97;;;17.30;;
10904;SDS011;5505;51.450;9.254;2023-02-12T06:52:02;25.87;;;17.77;;
10904;SDS011;5505;51.450;9.254;2023-02-12T06:54:48;28.73;;;19.60;;
10904;SDS011;5505;51.450;9.254;2023-02-12T06:57:35;27.47;;;19.00;;
10904;SDS011;5505;51.450;9.254;2023-02-12T07:00:22;31.77;;;20.07;;
10904;SDS011;5505;51.450;9.254;2023-02-12T07:03:10;29.07;;;20.00;;
10904;SDS011;5505;51.450;9.254;2023-02-12T07:05:57;26.63;;;19.57;;
10904;SDS011;5505;51.450;9.254;2023-02-12T07:08:44;31.50;;;20.13;;
10904;SDS011;5505;51.450;9.254;2023-02-12T07:11:32;27.87;;;19.33;;
10904;SDS011;5505;51.450;9.254;2023-02-12T07:14:20;27.90;;;18.57;;
10904;SDS011;5505;51.450;9.254;2023-02-12T07:17:07;26.73;;;18.50;;
10904;SDS011;5505;51.450;9.254;2023-02-12T07:19:55;25.47;;;17.30;;
10904;SDS011;5505;51.450;9.254;2023-02-12T07:22:42;26.30;;;18.53;;
10904;SDS011;5505;51.450;9.254;2023-02-12T07:25:29;25.70;;;17.53;;
10904;SDS011;5505;51.450;9.254;2023-02-12T07:28:15;24.33;;;16.60;;
10904;SDS011;5505;51.450;9.254;2023-02-12T07:31:06;26.43;;;17.50;;
10904;SDS011;5505;51.450;9.254;2023-02-12T07:33:53;23.70;;;17.33;;
10904;SDS011;5505;51.450;9.254;2023-02-12T07:36:42;29.17;;;20.73;;
10904;SDS011;5505;51.450;9.254;2023-02-12T07:39:29;22.73;;;16.90;;
10904;SDS011;5505;51.450;9.254;2023-02-12T07:42:16;22.47;;;15.87;;
10904;SDS011;5505;51.450;9.254;2023-02-12T07:45:03;23.30;;;16.57;;
10904;SDS011;5505;51.450;9.254;2023-02-12T07:47:50;20.57;;;14.60;;
10904;SDS011;5505;51.450;9.254;2023-02-12T07:50:37;21.03;;;15.47;;
10904;SDS011;5505;51.450;9.254;2023-02-12T07:53:25;21.10;;;15.00;;
10904;SDS011;5505;51.450;9.254;2023-02-12T07:56:13;21.23;;;14.83;;
10904;SDS011;5505;51.450;9.254;2023-02-12T07:59:01;22.53;;;15.43;;
10904;SDS011;5505;51.450;9.254;2023-02-12T08:01:49;20.83;;;14.97;;
10904;SDS011;5505;51.450;9.254;2023-02-12T08:04:37;23.17;;;15.17;;
10904;SDS011;5505;51.450;9.254;2023-02-12T08:07:24;22.20;;;15.10;;
10904;SDS011;5505;51.450;9.254;2023-02-12T08:10:12;20.77;;;14.30;;
10904;SDS011;5505;51.450;9.254;2023-02-12T08:12:59;18.87;;;13.90;;
10904;SDS011;5505;51.450;9.254;2023-02-12T08:15:46;21.73;;;14.33;;
10904;SDS011;5505;51.450;9.254;2023-02-12T08:18:33;20.00;;;14.47;;
10904;SDS011;5505;51.450;9.254;2023-02-12T08:21:20;21.27;;;14.27;;
10904;SDS011;5505;51.450;9.254;2023-02-12T08:24:08;21.80;;;15.00;;
10904;SDS011;5505;51.450;9.254;2023-02-12T08:26:57;21.43;;;14.33;;
10904;SDS011;5505;51.450;9.254;2023-02-12T08:29:44;21.60;;;14.77;;
10904;SDS011;5505;51.450;9.254;2023-02-12T08:32:31;19.93;;;13.67;;
10904;SDS011;5505;51.450;9.254;2023-02-12T08:35:17;21.13;;;14.17;;
10904;SDS011;5505;51.450;9.254;2023-02-12T08:38:04;21.73;;;14.27;;
10904;SDS011;5505;51.450;9.254;2023-02-12T08:40:53;19.90;;;14.50;;
10904;SDS011;5505;51.450;9.254;2023-02-12T08:43:42;20.97;;;14.43;;
10904;SDS011;5505;51.450;9.254;2023-02-12T08:46:29;22.63;;;15.10;;
10904;SDS011;5505;51.450;9.254;2023-02-12T08:49:18;18.63;;;14.07;;
10904;SDS011;5505;51.450;9.254;2023-02-12T08:52:07;22.00;;;14.30;;
10904;SDS011;5505;51.450;9.254;2023-02-12T08:54:54;20.70;;;14.20;;
10904;SDS011;5505;51.450;9.254;2023-02-12T08:57:41;19.03;;;14.17;;
10904;SDS011;5505;51.450;9.254;2023-02-12T09:00:29;18.53;;;13.87;;
10904;SDS011;5505;51.450;9.254;2023-02-12T09:03:16;20.80;;;14.43;;
10904;SDS011;5505;51.450;9.254;2023-02-12T09:06:02;18.97;;;13.87;;
10904;SDS011;5505;51.450;9.254;2023-02-12T09:08:50;17.77;;;12.57;;
10904;SDS011;5505;51.450;9.254;2023-02-12T09:11:37;20.37;;;12.37;;
10904;SDS011;5505;51.450;9.254;2023-02-12T09:14:24;17.13;;;12.67;;
10904;SDS011;5505;51.450;9.254;2023-02-12T09:17:12;18.63;;;13.00;;
10904;SDS011;5505;51.450;9.254;2023-02-12T09:19:59;17.37;;;11.57;;
10904;SDS011;5505;51.450;9.254;2023-02-12T09:22:46;16.77;;;11.93;;
10904;SDS011;5505;51.450;9.254;2023-02-12T09:25:33;16.10;;;11.03;;
10904;SDS011;5505;51.450;9.254;2023-02-12T09:28:20;15.97;;;11.30;;
10904;SDS011;5505;51.450;9.254;2023-02-12T09:31:08;14.97;;;10.67;;
10904;SDS011;5505;51.450;9.254;2023-02-12T09:33:58;12.30;;;8.83;;
10904;SDS011;5505;51.450;9.254;2023-02-12T09:36:46;11.20;;;9.00;;
10904;SDS011;5505;51.450;9.254;2023-02-12T09:39:32;12.27;;;8.33;;
10904;SDS011;5505;51.450;9.254;2023-02-12T09:42:22;16.83;;;10.80;;
10904;SDS011;5505;51.450;9.254;2023-02-12T09:45:20;38.40;;;26.53;;
10904;SDS011;5505;51.450;9.254;2023-02-12T09:48:14;13.73;;;9.60;;
10904;SDS011;5505;51.450;9.254;2023-02-12T09:51:14;11.73;;;8.00;;
10904;SDS011;5505;51.450;9.254;2023-02-12T09:54:03;13.37;;;10.03;;
10904;SDS011;5505;51.450;9.254;2023-02-12T09:56:53;10.20;;;8.10;;
10904;SDS011;5505;51.450;9.254;2023-02-12T09:59:44;11.53;;;8.33;;
10904;SDS011;5505;51.450;9.254;2023-02-12T10:02:34;14.43;;;8.70;;
10904;SDS011;5505;51.450;9.254;2023-02-12T10:05:23;10.40;;;8.40;;
10904;SDS011;5505;51.450;9.254;2023-02-12T10:08:36;16.40;;;10.00;;
10904;SDS011;5505;51.450;9.254;2023-02-12T10:11:40;13.47;;;9.47;;
10904;SDS011;5505;51.450;9.254;2023-02-12T10:14:47;13.80;;;9.50;;
10904;SDS011;5505;51.450;9.254;2023-02-12T10:17:49;14.17;;;9.67;;
10904;SDS011;5505;51.450;9.254;2023-02-12T10:23:56;14.47;;;10.23;;
10904;SDS011;5505;51.450;9.254;2023-02-12T10:26:56;12.13;;;9.63;;
10904;SDS011;5505;51.450;9.254;2023-02-12T10:29:46;13.90;;;9.40;;
10904;SDS011;5505;51.450;9.254;2023-02-12T10:32:35;13.97;;;11.57;;
10904;SDS011;5505;51.450;9.254;2023-02-12T10:35:23;14.83;;;11.07;;
10904;SDS011;5505;51.450;9.254;2023-02-12T10:38:12;13.60;;;10.13;;
10904;SDS011;5505;51.450;9.254;2023-02-12T10:41:04;11.67;;;8.97;;
10904;SDS011;5505;51.450;9.254;2023-02-12T10:43:50;12.17;;;8.93;;
10904;SDS011;5505;51.450;9.254;2023-02-12T10:46:38;11.03;;;8.80;;
10904;SDS011;5505;51.450;9.254;2023-02-12T10:49:24;10.90;;;8.20;;
10904;SDS011;5505;51.450;9.254;2023-02-12T10:52:14;9.60;;;8.40;;
10904;SDS011;5505;51.450;9.254;2023-02-12T10:55:21;10.70;;;7.73;;
10904;SDS011;5505;51.450;9.254;2023-02-12T10:58:17;9.20;;;7.70;;
10904;SDS011;5505;51.450;9.254;2023-02-12T11:01:11;10.77;;;7.80;;
10904;SDS011;5505;51.450;9.254;2023-02-12T11:04:18;8.87;;;7.00;;
10904;SDS011;5505;51.450;9.254;2023-02-12T11:07:06;10.20;;;7.30;;
10904;SDS011;5505;51.450;9.254;2023-02-12T11:09:55;8.47;;;6.47;;
10904;SDS011;5505;51.450;9.254;2023-02-12T11:12:42;16.97;;;10.73;;
10904;SDS011;5505;51.450;9.254;2023-02-12T11:15:35;10.73;;;7.87;;
10904;SDS011;5505;51.450;9.254;2023-02-12T11:18:24;18.53;;;15.27;;
10904;SDS011;5505;51.450;9.254;2023-02-12T11:21:12;19.07;;;16.53;;
10904;SDS011;5505;51.450;9.254;2023-02-12T11:27:21;14.27;;;11.13;;
10904;SDS011;5505;51.450;9.254;2023-02-12T11:30:16;8.07;;;6.20;;
10904;SDS011;5505;51.450;9.254;2023-02-12T11:33:16;8.97;;;7.70;;
10904;SDS011;5505;51.450;9.254;2023-02-12T11:36:14;9.03;;;6.13;;
10904;SDS011;5505;51.450;9.254;2023-02-12T11:39:08;6.23;;;5.40;;
10904;SDS011;5505;51.450;9.254;2023-02-12T11:42:05;7.37;;;5.67;;
10904;SDS011;5505;51.450;9.254;2023-02-12T11:45:00;6.60;;;5.90;;
10904;SDS011;5505;51.450;9.254;2023-02-12T11:47:48;8.37;;;5.27;;
10904;SDS011;5505;51.450;9.254;2023-02-12T11:50:38;7.33;;;5.40;;
10904;SDS011;5505;51.450;9.254;2023-02-12T11:53:32;7.87;;;5.27;;
10904;SDS011;5505;51.450;9.254;2023-02-12T11:56:21;7.27;;;6.13;;
10904;SDS011;5505;51.450;9.254;2023-02-12T11:59:29;7.30;;;6.00;;
10904;SDS011;5505;51.450;9.254;2023-02-12T12:02:21;6.63;;;4.90;;
10904;SDS011;5505;51.450;9.254;2023-02-12T12:05:12;9.50;;;6.47;;
10904;SDS011;5505;51.450;9.254;2023-02-12T12:08:05;10.07;;;7.50;;
10904;SDS011;5505;51.450;9.254;2023-02-12T12:10:58;7.37;;;6.33;;
10904;SDS011;5505;51.450;9.254;2023-02-12T12:13:55;8.57;;;5.83;;
10904;SDS011;5505;51.450;9.254;2023-02-12T12:16:48;8.23;;;5.70;;
10904;SDS011;5505;51.450;9.254;2023-02-12T12:19:59;5.90;;;4.80;;
10904;SDS011;5505;51.450;9.254;2023-02-12T12:22:52;9.43;;;4.87;;
10904;SDS011;5505;51.450;9.254;2023-02-12T12:25:46;7.53;;;5.03;;
10904;SDS011;5505;51.450;9.254;2023-02-12T12:28:39;6.60;;;5.10;;
10904;SDS011;5505;51.450;9.254;2023-02-12T12:31:30;6.43;;;5.20;;
10904;SDS011;5505;51.450;9.254;2023-02-12T12:34:20;6.17;;;5.20;;
10904;SDS011;5505;51.450;9.254;2023-02-12T12:37:13;7.37;;;5.77;;
10904;SDS011;5505;51.450;9.254;2023-02-12T12:40:12;7.77;;;5.23;;
10904;SDS011;5505;51.450;9.254;2023-02-12T12:43:12;6.77;;;5.20;;
10904;SDS011;5505;51.450;9.254;2023-02-12T12:49:27;4.80;;;3.97;;
10904;SDS011;5505;51.450;9.254;2023-02-12T12:55:47;6.63;;;4.37;;
10904;SDS011;5505;51.450;9.254;2023-02-12T12:58:58;6.27;;;4.47;;
10904;SDS011;5505;51.450;9.254;2023-02-12T13:05:43;6.77;;;4.63;;
10904;SDS011;5505;51.450;9.254;2023-02-12T13:08:42;6.40;;;4.87;;
10904;SDS011;5505;51.450;9.254;2023-02-12T13:11:44;6.77;;;4.30;;
10904;SDS011;5505;51.450;9.254;2023-02-12T13:14:44;9.50;;;7.47;;
10904;SDS011;5505;51.450;9.254;2023-02-12T13:17:38;11.23;;;7.00;;
10904;SDS011;5505;51.450;9.254;2023-02-12T13:20:32;63.10;;;40.83;;
10904;SDS011;5505;51.450;9.254;2023-02-12T13:23:28;97.40;;;55.83;;
10904;SDS011;5505;51.450;9.254;2023-02-12T13:26:24;20.23;;;13.00;;
10904;SDS011;5505;51.450;9.254;2023-02-12T13:29:17;16.90;;;13.60;;
10904;SDS011;5505;51.450;9.254;2023-02-12T13:32:10;8.60;;;7.23;;
10904;SDS011;5505;51.450;9.254;2023-02-12T13:34:59;10.23;;;6.83;;
10904;SDS011;5505;51.450;9.254;2023-02-12T13:37:50;13.67;;;8.50;;
10904;SDS011;5505;51.450;9.254;2023-02-12T13:40:38;8.63;;;6.23;;
10904;SDS011;5505;51.450;9.254;2023-02-12T13:43:30;9.87;;;6.80;;
10904;SDS011;5505;51.450;9.254;2023-02-12T13:46:28;9.00;;;7.57;;
10904;SDS011;5505;51.450;9.254;2023-02-12T13:49:24;9.33;;;7.80;;
10904;SDS011;5505;51.450;9.254;2023-02-12T13:52:23;8.70;;;6.80;;
10904;SDS011;5505;51.450;9.254;2023-02-12T13:55:20;21.30;;;17.77;;
10904;SDS011;5505;51.450;9.254;2023-02-12T14:01:34;12.47;;;10.90;;
10904;SDS011;5505;51.450;9.254;2023-02-12T14:04:29;15.93;;;13.57;;
10904;SDS011;5505;51.450;9.254;2023-02-12T14:07:17;8.43;;;7.43;;
10904;SDS011;5505;51.450;9.254;2023-02-12T14:10:05;11.27;;;7.60;;
10904;SDS011;5505;51.450;9.254;2023-02-12T14:12:53;9.23;;;6.83;;
10904;SDS011;5505;51.450;9.254;2023-02-12T14:15:44;11.27;;;8.97;;
10904;SDS011;5505;51.450;9.254;2023-02-12T14:18:35;11.30;;;7.80;;
10904;SDS011;5505;51.450;9.254;2023-02-12T14:27:41;17.83;;;13.67;;
10904;SDS011;5505;51.450;9.254;2023-02-12T14:30:31;16.40;;;10.10;;
10904;SDS011;5505;51.450;9.254;2023-02-12T14:33:24;60.00;;;45.37;;
10904;SDS011;5505;51.450;9.254;2023-02-12T14:36:16;23.97;;;20.00;;
10904;SDS011;5505;51.450;9.254;2023-02-12T14:39:25;17.93;;;14.43;;
10904;SDS011;5505;51.450;9.254;2023-02-12T14:45:40;10.27;;;9.27;;
10904;SDS011;5505;51.450;9.254;2023-02-12T14:48:44;10.10;;;8.00;;
10904;SDS011;5505;51.450;9.254;2023-02-12T14:51:37;9.20;;;7.87;;
10904;SDS011;5505;51.450;9.254;2023-02-12T14:54:30;10.53;;;8.23;;
10904;SDS011;5505;51.450;9.254;2023-02-12T14:57:22;10.13;;;8.40;;
10904;SDS011;5505;51.450;9.254;2023-02-12T15:00:18;11.37;;;8.17;;
10904;SDS011;5505;51.450;9.254;2023-02-12T15:03:13;10.20;;;8.17;;
10904;SDS011;5505;51.450;9.254;2023-02-12T15:06:09;8.77;;;7.87;;
10904;SDS011;5505;51.450;9.254;2023-02-12T15:09:02;9.20;;;7.73;;
10904;SDS011;5505;51.450;9.254;2023-02-12T15:11:57;6.93;;;6.20;;
10904;SDS011;5505;51.450;9.254;2023-02-12T15:14:49;6.73;;;6.03;;
10904;SDS011;5505;51.450;9.254;2023-02-12T15:17:39;7.07;;;6.13;;
10904;SDS011;5505;51.450;9.254;2023-02-12T15:20:34;7.87;;;6.10;;
10904;SDS011;5505;51.450;9.254;2023-02-12T15:23:33;6.13;;;5.53;;
10904;SDS011;5505;51.450;9.254;2023-02-12T15:26:23;6.90;;;5.73;;
10904;SDS011;5505;51.450;9.254;2023-02-12T15:29:18;7.30;;;5.67;;
10904;SDS011;5505;51.450;9.254;2023-02-12T15:32:08;7.37;;;5.57;;
10904;SDS011;5505;51.450;9.254;2023-02-12T15:35:03;6.20;;;5.60;;
10904;SDS011;5505;51.450;9.254;2023-02-12T15:37:50;7.10;;;5.80;;
10904;SDS011;5505;51.450;9.254;2023-02-12T15:40:37;7.70;;;5.80;;
10904;SDS011;5505;51.450;9.254;2023-02-12T15:43:39;7.67;;;5.73;;
10904;SDS011;5505;51.450;9.254;2023-02-12T15:46:28;7.67;;;6.67;;
10904;SDS011;5505;51.450;9.254;2023-02-12T15:49:18;11.23;;;9.47;;
10904;SDS011;5505;51.450;9.254;2023-02-12T15:52:06;15.97;;;11.90;;
10904;SDS011;5505;51.450;9.254;2023-02-12T15:55:05;8.97;;;7.13;;
10904;SDS011;5505;51.450;9.254;2023-02-12T15:58:01;6.87;;;6.17;;
10904;SDS011;5505;51.450;9.254;2023-02-12T16:00:48;7.33;;;6.10;;
10904;SDS011;5505;51.450;9.254;2023-02-12T16:03:39;8.23;;;6.40;;
10904;SDS011;5505;51.450;9.254;2023-02-12T16:06:26;7.70;;;6.30;;
10904;SDS011;5505;51.450;9.254;2023-02-12T16:09:16;7.60;;;6.00;;
10904;SDS011;5505;51.450;9.254;2023-02-12T16:12:14;7.03;;;6.33;;
10904;SDS011;5505;51.450;9.254;2023-02-12T16:15:05;8.60;;;7.63;;
10904;SDS011;5505;51.450;9.254;2023-02-12T16:17:54;8.57;;;7.50;;
10904;SDS011;5505;51.450;9.254;2023-02-12T16:20:43;16.47;;;12.07;;
10904;SDS011;5505;51.450;9.254;2023-02-12T16:23:31;8.77;;;6.77;;
10904;SDS011;5505;51.450;9.254;2023-02-12T16:26:21;7.37;;;6.60;;
10904;SDS011;5505;51.450;9.254;2023-02-12T16:29:12;9.70;;;6.10;;
10904;SDS011;5505;51.450;9.254;2023-02-12T16:32:02;8.00;;;6.47;;
10904;SDS011;5505;51.450;9.254;2023-02-12T16:34:56;8.73;;;6.53;;
10904;SDS011;5505;51.450;9.254;2023-02-12T16:37:47;8.63;;;6.37;;
10904;SDS011;5505;51.450;9.254;2023-02-12T16:40:35;7.67;;;6.70;;
10904;SDS011;5505;51.450;9.254;2023-02-12T16:43:24;7.27;;;6.57;;
10904;SDS011;5505;51.450;9.254;2023-02-12T16:46:12;7.97;;;7.17;;
10904;SDS011;5505;51.450;9.254;2023-02-12T16:49:01;8.13;;;6.80;;
10904;SDS011;5505;51.450;9.254;2023-02-12T16:51:49;7.77;;;7.00;;
10904;SDS011;5505;51.450;9.254;2023-02-12T16:54:38;8.03;;;7.20;;
10904;SDS011;5505;51.450;9.254;2023-02-12T16:57:24;10.03;;;7.90;;
10904;SDS011;5505;51.450;9.254;2023-02-12T17:00:14;8.47;;;7.30;;
10904;SDS011;5505;51.450;9.254;2023-02-12T17:03:03;8.53;;;7.33;;
10904;SDS011;5505;51.450;9.254;2023-02-12T17:05:49;7.60;;;6.77;;
10904;SDS011;5505;51.450;9.254;2023-02-12T17:08:37;10.07;;;7.20;;
10904;SDS011;5505;51.450;9.254;2023-02-12T17:11:26;8.53;;;7.20;;
10904;SDS011;5505;51.450;9.254;2023-02-12T17:14:14;8.57;;;6.40;;
10904;SDS011;5505;51.450;9.254;2023-02-12T17:17:02;8.47;;;7.17;;
10904;SDS011;5505;51.450;9.254;2023-02-12T17:19:49;8.43;;;7.60;;
10904;SDS011;5505;51.450;9.254;2023-02-12T17:22:37;8.90;;;7.63;;
10904;SDS011;5505;51.450;9.254;2023-02-12T17:25:24;10.93;;;8.90;;
10904;SDS011;5505;51.450;9.254;2023-02-12T17:28:12;23.87;;;15.20;;
10904;SDS011;5505;51.450;9.254;2023-02-12T17:30:59;11.47;;;9.77;;
10904;SDS011;5505;51.450;9.254;2023-02-12T17:33:50;10.13;;;8.20;;
10904;SDS011;5505;51.450;9.254;2023-02-12T17:36:36;10.23;;;9.23;;